Terminal Aerodrome Forecast
Issued by NWS Upton, NY

Home | Current Version | Previous Version | Text Only | Print | Product List | Glossary On
Versions: 1 2 3 4 5 6 7 8 9 10 11 12 13 14 15 16 17 18 19 20 21 22 23 24 25 26
000
FTUS41 KOKX 301100
TAFBDR
TAF
KBDR 301125Z 3012/3112 VRB05KT 6SM -SN OVC035
      TEMPO 3012/3016 3SM -SHSN BKN015
     FM301600 31012G21KT P6SM SCT025 BKN050
     FM301900 31015G25KT P6SM SCT025 BKN050
     FM302300 32023G35KT P6SM SCT025 SCT150
     FM310600 31025G40KT P6SM SCT250=

USA.gov is the U.S. government's official web portal to all federal, state and local government web resources and services.